sensor_id;sensor_type;location;lat;lon;timestamp;P1;durP1;ratioP1;P2;durP2;ratioP2
54263;SDS011;40178;53.042;6.406;2023-05-27T00:02:05;4.38;;;1.20;;
54263;SDS011;40178;53.042;6.406;2023-05-27T00:04:31;4.10;;;1.70;;
54263;SDS011;40178;53.042;6.406;2023-05-27T00:06:56;4.60;;;1.67;;
54263;SDS011;40178;53.042;6.406;2023-05-27T00:09:22;7.85;;;2.25;;
54263;SDS011;40178;53.042;6.406;2023-05-27T00:11:48;7.93;;;2.10;;
54263;SDS011;40178;53.042;6.406;2023-05-27T00:14:13;9.40;;;2.33;;
54263;SDS011;40178;53.042;6.406;2023-05-27T00:16:39;6.85;;;2.30;;
54263;SDS011;40178;53.042;6.406;2023-05-27T00:19:05;5.63;;;2.60;;
54263;SDS011;40178;53.042;6.406;2023-05-27T00:21:30;7.10;;;2.65;;
54263;SDS011;40178;53.042;6.406;2023-05-27T00:23:56;7.03;;;2.80;;
54263;SDS011;40178;53.042;6.406;2023-05-27T00:26:24;12.45;;;3.03;;
54263;SDS011;40178;53.042;6.406;2023-05-27T00:28:51;9.10;;;2.70;;
54263;SDS011;40178;53.042;6.406;2023-05-27T00:31:16;6.35;;;2.10;;
54263;SDS011;40178;53.042;6.406;2023-05-27T00:33:42;13.25;;;3.13;;
54263;SDS011;40178;53.042;6.406;2023-05-27T00:36:09;10.32;;;3.05;;
54263;SDS011;40178;53.042;6.406;2023-05-27T00:38:35;10.02;;;2.63;;
54263;SDS011;40178;53.042;6.406;2023-05-27T00:41:01;11.27;;;2.85;;
54263;SDS011;40178;53.042;6.406;2023-05-27T00:43:28;6.78;;;2.53;;
54263;SDS011;40178;53.042;6.406;2023-05-27T00:45:55;6.97;;;1.85;;
54263;SDS011;40178;53.042;6.406;2023-05-27T00:48:21;8.88;;;2.20;;
54263;SDS011;40178;53.042;6.406;2023-05-27T00:50:47;5.45;;;1.83;;
54263;SDS011;40178;53.042;6.406;2023-05-27T00:53:13;3.88;;;1.10;;
54263;SDS011;40178;53.042;6.406;2023-05-27T00:55:39;9.93;;;2.30;;
54263;SDS011;40178;53.042;6.406;2023-05-27T00:58:05;3.80;;;1.35;;
54263;SDS011;40178;53.042;6.406;2023-05-27T01:00:34;3.90;;;1.20;;
54263;SDS011;40178;53.042;6.406;2023-05-27T01:02:59;4.57;;;1.52;;
54263;SDS011;40178;53.042;6.406;2023-05-27T01:05:25;5.53;;;2.13;;
54263;SDS011;40178;53.042;6.406;2023-05-27T01:10:42;8.23;;;2.15;;
54263;SDS011;40178;53.042;6.406;2023-05-27T01:13:39;8.15;;;1.90;;
54263;SDS011;40178;53.042;6.406;2023-05-27T01:16:12;5.55;;;1.80;;
54263;SDS011;40178;53.042;6.406;2023-05-27T01:18:40;6.80;;;2.22;;
54263;SDS011;40178;53.042;6.406;2023-05-27T01:21:12;6.10;;;2.40;;
54263;SDS011;40178;53.042;6.406;2023-05-27T01:23:42;6.85;;;2.10;;
54263;SDS011;40178;53.042;6.406;2023-05-27T01:26:07;6.65;;;1.92;;
54263;SDS011;40178;53.042;6.406;2023-05-27T01:28:33;6.20;;;1.95;;
54263;SDS011;40178;53.042;6.406;2023-05-27T01:31:01;5.47;;;1.77;;
54263;SDS011;40178;53.042;6.406;2023-05-27T01:33:40;6.60;;;2.58;;
54263;SDS011;40178;53.042;6.406;2023-05-27T01:36:15;6.10;;;2.08;;
54263;SDS011;40178;53.042;6.406;2023-05-27T01:38:43;6.43;;;2.20;;
54263;SDS011;40178;53.042;6.406;2023-05-27T01:41:10;8.15;;;2.38;;
54263;SDS011;40178;53.042;6.406;2023-05-27T01:43:37;7.00;;;2.53;;
54263;SDS011;40178;53.042;6.406;2023-05-27T01:46:04;10.25;;;2.92;;
54263;SDS011;40178;53.042;6.406;2023-05-27T01:48:30;6.13;;;2.00;;
54263;SDS011;40178;53.042;6.406;2023-05-27T01:50:55;5.40;;;1.67;;
54263;SDS011;40178;53.042;6.406;2023-05-27T01:53:21;8.63;;;2.13;;
54263;SDS011;40178;53.042;6.406;2023-05-27T01:55:47;8.85;;;2.70;;
54263;SDS011;40178;53.042;6.406;2023-05-27T01:58:12;6.57;;;2.92;;
54263;SDS011;40178;53.042;6.406;2023-05-27T02:00:38;7.75;;;2.53;;
54263;SDS011;40178;53.042;6.406;2023-05-27T02:03:03;11.73;;;2.60;;
54263;SDS011;40178;53.042;6.406;2023-05-27T02:05:29;5.50;;;2.10;;
54263;SDS011;40178;53.042;6.406;2023-05-27T02:07:55;5.05;;;1.60;;
54263;SDS011;40178;53.042;6.406;2023-05-27T02:10:20;4.03;;;0.90;;
54263;SDS011;40178;53.042;6.406;2023-05-27T02:12:46;4.85;;;1.75;;
54263;SDS011;40178;53.042;6.406;2023-05-27T02:15:13;4.32;;;1.38;;
54263;SDS011;40178;53.042;6.406;2023-05-27T02:17:38;6.88;;;2.38;;
54263;SDS011;40178;53.042;6.406;2023-05-27T02:20:04;6.95;;;2.50;;
54263;SDS011;40178;53.042;6.406;2023-05-27T02:22:31;5.55;;;1.88;;
54263;SDS011;40178;53.042;6.406;2023-05-27T02:24:56;6.97;;;1.88;;
54263;SDS011;40178;53.042;6.406;2023-05-27T02:27:22;9.18;;;2.00;;
54263;SDS011;40178;53.042;6.406;2023-05-27T02:29:47;7.07;;;2.42;;
54263;SDS011;40178;53.042;6.406;2023-05-27T02:32:13;4.93;;;2.17;;
54263;SDS011;40178;53.042;6.406;2023-05-27T02:34:39;6.85;;;2.33;;
54263;SDS011;40178;53.042;6.406;2023-05-27T02:37:06;7.20;;;2.65;;
54263;SDS011;40178;53.042;6.406;2023-05-27T02:39:32;8.00;;;2.65;;
54263;SDS011;40178;53.042;6.406;2023-05-27T02:41:57;9.63;;;3.35;;
54263;SDS011;40178;53.042;6.406;2023-05-27T02:44:23;12.27;;;3.15;;
54263;SDS011;40178;53.042;6.406;2023-05-27T02:46:48;8.60;;;2.63;;
54263;SDS011;40178;53.042;6.406;2023-05-27T02:49:14;10.73;;;3.00;;
54263;SDS011;40178;53.042;6.406;2023-05-27T02:51:42;7.00;;;2.97;;
54263;SDS011;40178;53.042;6.406;2023-05-27T02:54:07;8.18;;;2.60;;
54263;SDS011;40178;53.042;6.406;2023-05-27T02:56:33;10.45;;;3.17;;
54263;SDS011;40178;53.042;6.406;2023-05-27T02:58:58;8.15;;;2.80;;
54263;SDS011;40178;53.042;6.406;2023-05-27T03:01:24;7.53;;;2.25;;
54263;SDS011;40178;53.042;6.406;2023-05-27T03:03:50;8.85;;;2.47;;
54263;SDS011;40178;53.042;6.406;2023-05-27T03:06:16;7.55;;;2.38;;
54263;SDS011;40178;53.042;6.406;2023-05-27T03:08:41;6.95;;;2.75;;
54263;SDS011;40178;53.042;6.406;2023-05-27T03:11:07;8.52;;;2.50;;
54263;SDS011;40178;53.042;6.406;2023-05-27T03:13:33;6.80;;;2.15;;
54263;SDS011;40178;53.042;6.406;2023-05-27T03:15:58;10.13;;;3.65;;
54263;SDS011;40178;53.042;6.406;2023-05-27T03:18:24;9.05;;;3.17;;
54263;SDS011;40178;53.042;6.406;2023-05-27T03:20:50;9.88;;;3.65;;
54263;SDS011;40178;53.042;6.406;2023-05-27T03:23:16;9.35;;;3.70;;
54263;SDS011;40178;53.042;6.406;2023-05-27T03:25:42;10.18;;;3.45;;
54263;SDS011;40178;53.042;6.406;2023-05-27T03:28:09;12.05;;;3.42;;
54263;SDS011;40178;53.042;6.406;2023-05-27T03:30:35;10.85;;;3.30;;
54263;SDS011;40178;53.042;6.406;2023-05-27T03:33:01;8.25;;;3.30;;
54263;SDS011;40178;53.042;6.406;2023-05-27T03:35:27;9.48;;;3.85;;
54263;SDS011;40178;53.042;6.406;2023-05-27T03:37:53;8.48;;;2.72;;
54263;SDS011;40178;53.042;6.406;2023-05-27T03:40:18;7.20;;;3.38;;
54263;SDS011;40178;53.042;6.406;2023-05-27T03:42:44;9.85;;;3.08;;
54263;SDS011;40178;53.042;6.406;2023-05-27T03:45:10;11.43;;;3.92;;
54263;SDS011;40178;53.042;6.406;2023-05-27T03:47:36;10.25;;;4.55;;
54263;SDS011;40178;53.042;6.406;2023-05-27T03:50:02;13.60;;;3.75;;
54263;SDS011;40178;53.042;6.406;2023-05-27T03:52:28;11.05;;;4.15;;
54263;SDS011;40178;53.042;6.406;2023-05-27T03:54:53;10.52;;;3.97;;
54263;SDS011;40178;53.042;6.406;2023-05-27T03:57:19;10.30;;;4.13;;
54263;SDS011;40178;53.042;6.406;2023-05-27T03:59:44;8.82;;;3.50;;
54263;SDS011;40178;53.042;6.406;2023-05-27T04:02:10;12.30;;;3.95;;
54263;SDS011;40178;53.042;6.406;2023-05-27T04:04:36;9.52;;;4.00;;
54263;SDS011;40178;53.042;6.406;2023-05-27T04:07:02;9.52;;;3.33;;
54263;SDS011;40178;53.042;6.406;2023-05-27T04:09:28;7.10;;;3.20;;
54263;SDS011;40178;53.042;6.406;2023-05-27T04:11:53;11.60;;;3.40;;
54263;SDS011;40178;53.042;6.406;2023-05-27T04:14:19;9.93;;;3.20;;
54263;SDS011;40178;53.042;6.406;2023-05-27T04:16:45;9.93;;;3.33;;
54263;SDS011;40178;53.042;6.406;2023-05-27T04:19:10;10.75;;;4.03;;
54263;SDS011;40178;53.042;6.406;2023-05-27T04:21:36;10.57;;;3.90;;
54263;SDS011;40178;53.042;6.406;2023-05-27T04:24:02;7.78;;;3.35;;
54263;SDS011;40178;53.042;6.406;2023-05-27T04:26:28;10.55;;;3.88;;
54263;SDS011;40178;53.042;6.406;2023-05-27T04:28:54;7.18;;;2.97;;
54263;SDS011;40178;53.042;6.406;2023-05-27T04:31:19;11.43;;;4.30;;
54263;SDS011;40178;53.042;6.406;2023-05-27T04:33:45;9.05;;;3.45;;
54263;SDS011;40178;53.042;6.406;2023-05-27T04:36:11;11.65;;;4.15;;
54263;SDS011;40178;53.042;6.406;2023-05-27T04:38:36;14.80;;;3.70;;
54263;SDS011;40178;53.042;6.406;2023-05-27T04:41:03;8.90;;;3.90;;
54263;SDS011;40178;53.042;6.406;2023-05-27T04:43:29;9.75;;;3.40;;
54263;SDS011;40178;53.042;6.406;2023-05-27T04:45:56;13.70;;;4.15;;
54263;SDS011;40178;53.042;6.406;2023-05-27T04:48:24;10.27;;;4.63;;
54263;SDS011;40178;53.042;6.406;2023-05-27T04:50:50;11.20;;;3.42;;
54263;SDS011;40178;53.042;6.406;2023-05-27T04:53:18;9.73;;;3.35;;
54263;SDS011;40178;53.042;6.406;2023-05-27T04:55:44;10.85;;;3.45;;
54263;SDS011;40178;53.042;6.406;2023-05-27T04:58:10;12.25;;;4.20;;
54263;SDS011;40178;53.042;6.406;2023-05-27T05:00:36;10.73;;;3.25;;
54263;SDS011;40178;53.042;6.406;2023-05-27T05:03:04;11.50;;;4.13;;
54263;SDS011;40178;53.042;6.406;2023-05-27T05:05:31;10.30;;;4.13;;
54263;SDS011;40178;53.042;6.406;2023-05-27T05:07:57;10.07;;;4.10;;
54263;SDS011;40178;53.042;6.406;2023-05-27T05:10:23;8.85;;;3.95;;
54263;SDS011;40178;53.042;6.406;2023-05-27T05:12:48;12.00;;;4.60;;
54263;SDS011;40178;53.042;6.406;2023-05-27T05:15:14;11.63;;;4.38;;
54263;SDS011;40178;53.042;6.406;2023-05-27T05:17:40;14.70;;;4.35;;
54263;SDS011;40178;53.042;6.406;2023-05-27T05:20:05;10.40;;;4.30;;
54263;SDS011;40178;53.042;6.406;2023-05-27T05:22:33;9.93;;;3.17;;
54263;SDS011;40178;53.042;6.406;2023-05-27T05:24:59;16.73;;;6.00;;
54263;SDS011;40178;53.042;6.406;2023-05-27T05:27:25;15.02;;;5.22;;
54263;SDS011;40178;53.042;6.406;2023-05-27T05:29:51;14.07;;;4.20;;
54263;SDS011;40178;53.042;6.406;2023-05-27T05:32:20;15.30;;;5.18;;
54263;SDS011;40178;53.042;6.406;2023-05-27T05:34:48;15.85;;;5.32;;
54263;SDS011;40178;53.042;6.406;2023-05-27T05:37:14;15.02;;;5.35;;
54263;SDS011;40178;53.042;6.406;2023-05-27T05:39:40;17.23;;;5.07;;
54263;SDS011;40178;53.042;6.406;2023-05-27T05:42:09;14.52;;;5.03;;
54263;SDS011;40178;53.042;6.406;2023-05-27T05:44:34;17.60;;;5.47;;
54263;SDS011;40178;53.042;6.406;2023-05-27T05:47:00;17.30;;;6.40;;
54263;SDS011;40178;53.042;6.406;2023-05-27T05:49:26;14.20;;;4.35;;
54263;SDS011;40178;53.042;6.406;2023-05-27T05:51:51;12.55;;;4.70;;
54263;SDS011;40178;53.042;6.406;2023-05-27T05:54:17;16.05;;;5.15;;
54263;SDS011;40178;53.042;6.406;2023-05-27T05:56:43;13.98;;;4.93;;
54263;SDS011;40178;53.042;6.406;2023-05-27T05:59:08;11.05;;;4.47;;
54263;SDS011;40178;53.042;6.406;2023-05-27T06:01:34;11.85;;;3.85;;
54263;SDS011;40178;53.042;6.406;2023-05-27T06:04:00;14.05;;;4.65;;
54263;SDS011;40178;53.042;6.406;2023-05-27T06:06:29;11.45;;;3.85;;
54263;SDS011;40178;53.042;6.406;2023-05-27T06:08:55;13.02;;;4.32;;
54263;SDS011;40178;53.042;6.406;2023-05-27T06:11:21;13.48;;;4.18;;
54263;SDS011;40178;53.042;6.406;2023-05-27T06:13:47;15.68;;;4.95;;
54263;SDS011;40178;53.042;6.406;2023-05-27T06:16:13;7.57;;;3.38;;
54263;SDS011;40178;53.042;6.406;2023-05-27T06:18:38;10.35;;;3.60;;
54263;SDS011;40178;53.042;6.406;2023-05-27T06:21:04;18.13;;;4.15;;
54263;SDS011;40178;53.042;6.406;2023-05-27T06:23:29;13.88;;;4.57;;
54263;SDS011;40178;53.042;6.406;2023-05-27T06:25:55;12.55;;;4.03;;
54263;SDS011;40178;53.042;6.406;2023-05-27T06:28:21;15.38;;;3.63;;
54263;SDS011;40178;53.042;6.406;2023-05-27T06:30:47;13.57;;;3.63;;
54263;SDS011;40178;53.042;6.406;2023-05-27T06:33:12;10.27;;;3.40;;
54263;SDS011;40178;53.042;6.406;2023-05-27T06:35:38;15.98;;;3.80;;
54263;SDS011;40178;53.042;6.406;2023-05-27T06:38:04;14.02;;;3.38;;
54263;SDS011;40178;53.042;6.406;2023-05-27T06:40:30;11.98;;;3.58;;
54263;SDS011;40178;53.042;6.406;2023-05-27T06:42:56;13.23;;;3.80;;
54263;SDS011;40178;53.042;6.406;2023-05-27T06:45:22;14.32;;;4.32;;
54263;SDS011;40178;53.042;6.406;2023-05-27T06:47:47;13.95;;;4.78;;
54263;SDS011;40178;53.042;6.406;2023-05-27T06:50:13;11.65;;;3.65;;
54263;SDS011;40178;53.042;6.406;2023-05-27T06:52:42;12.60;;;3.60;;
54263;SDS011;40178;53.042;6.406;2023-05-27T06:55:07;15.95;;;4.25;;
54263;SDS011;40178;53.042;6.406;2023-05-27T06:57:33;10.85;;;3.10;;
54263;SDS011;40178;53.042;6.406;2023-05-27T06:59:59;13.32;;;4.15;;
54263;SDS011;40178;53.042;6.406;2023-05-27T07:02:24;11.20;;;4.00;;
54263;SDS011;40178;53.042;6.406;2023-05-27T07:04:50;10.73;;;3.25;;
54263;SDS011;40178;53.042;6.406;2023-05-27T07:07:18;12.65;;;3.85;;
54263;SDS011;40178;53.042;6.406;2023-05-27T07:09:44;12.80;;;3.95;;
54263;SDS011;40178;53.042;6.406;2023-05-27T07:12:10;15.77;;;4.07;;
54263;SDS011;40178;53.042;6.406;2023-05-27T07:14:36;12.05;;;3.50;;
54263;SDS011;40178;53.042;6.406;2023-05-27T07:17:02;12.88;;;3.97;;
54263;SDS011;40178;53.042;6.406;2023-05-27T07:19:27;11.82;;;3.90;;
54263;SDS011;40178;53.042;6.406;2023-05-27T07:21:53;10.27;;;3.60;;
54263;SDS011;40178;53.042;6.406;2023-05-27T07:24:18;11.25;;;3.58;;
54263;SDS011;40178;53.042;6.406;2023-05-27T07:26:44;15.07;;;4.20;;
54263;SDS011;40178;53.042;6.406;2023-05-27T07:29:10;12.32;;;3.90;;
54263;SDS011;40178;53.042;6.406;2023-05-27T07:31:36;13.82;;;3.88;;
54263;SDS011;40178;53.042;6.406;2023-05-27T07:34:01;11.27;;;3.70;;
54263;SDS011;40178;53.042;6.406;2023-05-27T07:36:27;17.60;;;4.00;;
54263;SDS011;40178;53.042;6.406;2023-05-27T07:38:53;11.80;;;3.47;;
54263;SDS011;40178;53.042;6.406;2023-05-27T07:41:18;11.02;;;3.72;;
54263;SDS011;40178;53.042;6.406;2023-05-27T07:43:45;10.23;;;3.53;;
54263;SDS011;40178;53.042;6.406;2023-05-27T07:46:11;14.77;;;4.18;;
54263;SDS011;40178;53.042;6.406;2023-05-27T07:48:36;11.57;;;3.95;;
54263;SDS011;40178;53.042;6.406;2023-05-27T07:51:02;10.70;;;2.83;;
54263;SDS011;40178;53.042;6.406;2023-05-27T07:53:28;11.38;;;3.75;;
54263;SDS011;40178;53.042;6.406;2023-05-27T07:55:53;13.95;;;4.20;;
54263;SDS011;40178;53.042;6.406;2023-05-27T07:58:19;11.93;;;3.80;;
54263;SDS011;40178;53.042;6.406;2023-05-27T08:00:45;14.98;;;3.38;;
54263;SDS011;40178;53.042;6.406;2023-05-27T08:03:10;14.57;;;4.55;;
54263;SDS011;40178;53.042;6.406;2023-05-27T08:05:36;12.25;;;3.78;;
54263;SDS011;40178;53.042;6.406;2023-05-27T08:08:02;14.00;;;3.63;;
54263;SDS011;40178;53.042;6.406;2023-05-27T08:10:28;11.80;;;4.18;;
54263;SDS011;40178;53.042;6.406;2023-05-27T08:12:53;10.77;;;3.40;;
54263;SDS011;40178;53.042;6.406;2023-05-27T08:15:19;12.18;;;4.13;;
54263;SDS011;40178;53.042;6.406;2023-05-27T08:17:45;9.63;;;3.25;;
54263;SDS011;40178;53.042;6.406;2023-05-27T08:20:10;10.75;;;3.63;;
54263;SDS011;40178;53.042;6.406;2023-05-27T08:22:36;13.88;;;4.05;;
54263;SDS011;40178;53.042;6.406;2023-05-27T08:25:02;14.32;;;4.20;;
54263;SDS011;40178;53.042;6.406;2023-05-27T08:30:30;9.95;;;3.20;;
54263;SDS011;40178;53.042;6.406;2023-05-27T08:32:56;10.98;;;3.88;;
54263;SDS011;40178;53.042;6.406;2023-05-27T08:35:21;12.10;;;4.03;;
54263;SDS011;40178;53.042;6.406;2023-05-27T08:37:47;8.63;;;3.30;;
54263;SDS011;40178;53.042;6.406;2023-05-27T08:40:14;8.10;;;3.67;;
54263;SDS011;40178;53.042;6.406;2023-05-27T08:42:41;15.10;;;4.38;;
54263;SDS011;40178;53.042;6.406;2023-05-27T08:45:07;15.07;;;4.70;;
54263;SDS011;40178;53.042;6.406;2023-05-27T08:47:33;14.80;;;4.32;;
54263;SDS011;40178;53.042;6.406;2023-05-27T08:49:59;9.88;;;3.17;;
54263;SDS011;40178;53.042;6.406;2023-05-27T08:52:27;11.45;;;4.15;;
54263;SDS011;40178;53.042;6.406;2023-05-27T08:54:57;10.35;;;3.90;;
54263;SDS011;40178;53.042;6.406;2023-05-27T08:57:30;12.27;;;3.92;;
54263;SDS011;40178;53.042;6.406;2023-05-27T08:59:57;12.93;;;3.90;;
54263;SDS011;40178;53.042;6.406;2023-05-27T09:02:23;11.50;;;3.33;;
54263;SDS011;40178;53.042;6.406;2023-05-27T09:04:50;12.80;;;4.03;;
54263;SDS011;40178;53.042;6.406;2023-05-27T09:07:16;11.77;;;3.97;;
54263;SDS011;40178;53.042;6.406;2023-05-27T09:09:53;15.93;;;3.60;;
54263;SDS011;40178;53.042;6.406;2023-05-27T09:12:26;12.27;;;4.07;;
54263;SDS011;40178;53.042;6.406;2023-05-27T09:14:52;12.65;;;4.05;;
54263;SDS011;40178;53.042;6.406;2023-05-27T09:17:21;11.02;;;4.00;;
54263;SDS011;40178;53.042;6.406;2023-05-27T09:19:51;7.30;;;3.10;;
54263;SDS011;40178;53.042;6.406;2023-05-27T09:22:25;10.00;;;3.58;;
54263;SDS011;40178;53.042;6.406;2023-05-27T09:24:55;11.27;;;3.85;;
54263;SDS011;40178;53.042;6.406;2023-05-27T09:27:28;10.90;;;3.65;;
54263;SDS011;40178;53.042;6.406;2023-05-27T09:29:56;8.75;;;3.20;;
54263;SDS011;40178;53.042;6.406;2023-05-27T09:32:26;15.35;;;4.07;;
54263;SDS011;40178;53.042;6.406;2023-05-27T09:35:00;12.25;;;4.15;;
54263;SDS011;40178;53.042;6.406;2023-05-27T09:37:30;11.38;;;3.70;;
54263;SDS011;40178;53.042;6.406;2023-05-27T09:40:07;10.70;;;3.92;;
54263;SDS011;40178;53.042;6.406;2023-05-27T09:42:38;13.32;;;3.63;;
54263;SDS011;40178;53.042;6.406;2023-05-27T09:45:05;12.55;;;3.85;;
54263;SDS011;40178;53.042;6.406;2023-05-27T09:47:34;15.43;;;3.78;;
54263;SDS011;40178;53.042;6.406;2023-05-27T09:50:04;12.38;;;3.65;;
54263;SDS011;40178;53.042;6.406;2023-05-27T09:52:30;13.50;;;3.75;;
54263;SDS011;40178;53.042;6.406;2023-05-27T09:54:57;9.32;;;3.80;;
54263;SDS011;40178;53.042;6.406;2023-05-27T09:57:23;10.38;;;3.80;;
54263;SDS011;40178;53.042;6.406;2023-05-27T09:59:49;12.88;;;3.90;;
54263;SDS011;40178;53.042;6.406;2023-05-27T10:02:16;14.73;;;3.60;;
54263;SDS011;40178;53.042;6.406;2023-05-27T10:04:45;16.23;;;4.78;;
54263;SDS011;40178;53.042;6.406;2023-05-27T10:07:13;15.60;;;4.35;;
54263;SDS011;40178;53.042;6.406;2023-05-27T10:09:41;12.55;;;3.50;;
54263;SDS011;40178;53.042;6.406;2023-05-27T10:12:07;12.73;;;4.00;;
54263;SDS011;40178;53.042;6.406;2023-05-27T10:14:33;13.90;;;4.00;;
54263;SDS011;40178;53.042;6.406;2023-05-27T10:17:00;9.40;;;3.40;;
54263;SDS011;40178;53.042;6.406;2023-05-27T10:19:25;13.10;;;3.10;;
54263;SDS011;40178;53.042;6.406;2023-05-27T10:21:52;11.95;;;3.53;;
54263;SDS011;40178;53.042;6.406;2023-05-27T10:24:18;9.73;;;3.90;;
54263;SDS011;40178;53.042;6.406;2023-05-27T10:26:45;10.52;;;3.85;;
54263;SDS011;40178;53.042;6.406;2023-05-27T10:29:15;14.05;;;4.10;;
54263;SDS011;40178;53.042;6.406;2023-05-27T10:31:48;12.93;;;4.00;;
54263;SDS011;40178;53.042;6.406;2023-05-27T10:34:17;10.20;;;3.15;;
54263;SDS011;40178;53.042;6.406;2023-05-27T10:36:44;13.05;;;3.40;;
54263;SDS011;40178;53.042;6.406;2023-05-27T10:39:14;8.20;;;3.70;;
54263;SDS011;40178;53.042;6.406;2023-05-27T10:41:42;11.50;;;3.85;;
54263;SDS011;40178;53.042;6.406;2023-05-27T10:44:09;17.33;;;3.90;;
54263;SDS011;40178;53.042;6.406;2023-05-27T10:46:39;8.90;;;3.33;;
54263;SDS011;40178;53.042;6.406;2023-05-27T10:49:13;10.50;;;3.55;;
54263;SDS011;40178;53.042;6.406;2023-05-27T10:51:47;11.77;;;4.22;;
54263;SDS011;40178;53.042;6.406;2023-05-27T10:54:14;10.13;;;3.65;;
54263;SDS011;40178;53.042;6.406;2023-05-27T10:56:50;9.85;;;3.83;;
54263;SDS011;40178;53.042;6.406;2023-05-27T10:59:21;11.18;;;3.65;;
54263;SDS011;40178;53.042;6.406;2023-05-27T11:01:51;10.48;;;3.25;;
54263;SDS011;40178;53.042;6.406;2023-05-27T11:04:18;10.18;;;3.08;;
54263;SDS011;40178;53.042;6.406;2023-05-27T11:07:00;10.05;;;3.47;;
54263;SDS011;40178;53.042;6.406;2023-05-27T11:09:26;10.90;;;3.55;;
54263;SDS011;40178;53.042;6.406;2023-05-27T11:11:52;11.38;;;3.22;;
54263;SDS011;40178;53.042;6.406;2023-05-27T11:14:20;12.13;;;3.90;;
54263;SDS011;40178;53.042;6.406;2023-05-27T11:16:47;12.50;;;3.33;;
54263;SDS011;40178;53.042;6.406;2023-05-27T11:19:13;9.07;;;3.08;;
54263;SDS011;40178;53.042;6.406;2023-05-27T11:21:46;9.55;;;3.17;;
54263;SDS011;40178;53.042;6.406;2023-05-27T11:24:16;13.18;;;3.42;;
54263;SDS011;40178;53.042;6.406;2023-05-27T11:26:44;8.02;;;3.30;;
54263;SDS011;40178;53.042;6.406;2023-05-27T11:29:11;12.88;;;3.88;;
54263;SDS011;40178;53.042;6.406;2023-05-27T11:31:37;8.32;;;3.05;;
54263;SDS011;40178;53.042;6.406;2023-05-27T11:34:16;11.45;;;3.30;;
54263;SDS011;40178;53.042;6.406;2023-05-27T11:36:48;10.98;;;3.15;;
54263;SDS011;40178;53.042;6.406;2023-05-27T11:39:14;10.18;;;3.45;;
54263;SDS011;40178;53.042;6.406;2023-05-27T11:41:50;10.52;;;4.05;;
54263;SDS011;40178;53.042;6.406;2023-05-27T11:44:18;12.30;;;4.22;;
54263;SDS011;40178;53.042;6.406;2023-05-27T11:46:46;9.20;;;3.35;;
54263;SDS011;40178;53.042;6.406;2023-05-27T11:49:13;8.05;;;3.88;;
54263;SDS011;40178;53.042;6.406;2023-05-27T11:51:40;10.10;;;3.50;;
54263;SDS011;40178;53.042;6.406;2023-05-27T11:54:20;11.75;;;3.47;;
54263;SDS011;40178;53.042;6.406;2023-05-27T11:56:50;10.63;;;3.47;;
54263;SDS011;40178;53.042;6.406;2023-05-27T11:59:17;10.20;;;3.95;;
54263;SDS011;40178;53.042;6.406;2023-05-27T12:01:44;11.73;;;3.67;;
54263;SDS011;40178;53.042;6.406;2023-05-27T12:04:10;9.60;;;3.47;;
54263;SDS011;40178;53.042;6.406;2023-05-27T12:06:36;11.07;;;3.85;;
54263;SDS011;40178;53.042;6.406;2023-05-27T12:09:05;15.50;;;3.97;;
54263;SDS011;40178;53.042;6.406;2023-05-27T12:11:32;9.88;;;3.33;;
54263;SDS011;40178;53.042;6.406;2023-05-27T12:13:58;11.98;;;3.67;;
54263;SDS011;40178;53.042;6.406;2023-05-27T12:16:24;11.50;;;3.80;;
54263;SDS011;40178;53.042;6.406;2023-05-27T12:18:50;10.95;;;3.70;;
54263;SDS011;40178;53.042;6.406;2023-05-27T12:21:16;9.52;;;3.50;;
54263;SDS011;40178;53.042;6.406;2023-05-27T12:23:42;9.50;;;3.83;;
54263;SDS011;40178;53.042;6.406;2023-05-27T12:26:08;10.00;;;4.05;;
54263;SDS011;40178;53.042;6.406;2023-05-27T12:28:35;13.82;;;3.55;;
54263;SDS011;40178;53.042;6.406;2023-05-27T12:31:01;9.75;;;2.95;;
54263;SDS011;40178;53.042;6.406;2023-05-27T12:33:26;12.68;;;3.65;;
54263;SDS011;40178;53.042;6.406;2023-05-27T12:35:52;10.48;;;3.47;;
54263;SDS011;40178;53.042;6.406;2023-05-27T12:38:18;10.05;;;3.10;;
54263;SDS011;40178;53.042;6.406;2023-05-27T12:40:44;8.65;;;3.58;;
54263;SDS011;40178;53.042;6.406;2023-05-27T12:43:09;13.38;;;3.70;;
54263;SDS011;40178;53.042;6.406;2023-05-27T12:45:35;8.60;;;3.45;;
54263;SDS011;40178;53.042;6.406;2023-05-27T12:48:01;7.57;;;3.40;;
54263;SDS011;40178;53.042;6.406;2023-05-27T12:50:27;10.05;;;3.72;;
54263;SDS011;40178;53.042;6.406;2023-05-27T12:52:52;9.63;;;3.50;;
54263;SDS011;40178;53.042;6.406;2023-05-27T12:55:19;11.65;;;3.35;;
54263;SDS011;40178;53.042;6.406;2023-05-27T12:57:50;8.60;;;3.03;;
54263;SDS011;40178;53.042;6.406;2023-05-27T13:00:17;11.77;;;3.67;;
54263;SDS011;40178;53.042;6.406;2023-05-27T13:02:44;11.32;;;4.00;;
54263;SDS011;40178;53.042;6.406;2023-05-27T13:05:15;11.60;;;3.50;;
54263;SDS011;40178;53.042;6.406;2023-05-27T13:07:51;11.68;;;3.40;;
54263;SDS011;40178;53.042;6.406;2023-05-27T13:10:19;7.97;;;2.65;;
54263;SDS011;40178;53.042;6.406;2023-05-27T13:12:46;10.38;;;4.03;;
54263;SDS011;40178;53.042;6.406;2023-05-27T13:15:12;10.13;;;3.17;;
54263;SDS011;40178;53.042;6.406;2023-05-27T13:17:38;13.13;;;4.22;;
54263;SDS011;40178;53.042;6.406;2023-05-27T13:20:04;12.77;;;4.32;;
54263;SDS011;40178;53.042;6.406;2023-05-27T13:22:31;9.25;;;3.42;;
54263;SDS011;40178;53.042;6.406;2023-05-27T13:24:56;12.43;;;3.67;;
54263;SDS011;40178;53.042;6.406;2023-05-27T13:27:22;10.18;;;3.20;;
54263;SDS011;40178;53.042;6.406;2023-05-27T13:29:47;9.05;;;3.67;;
54263;SDS011;40178;53.042;6.406;2023-05-27T13:32:13;14.68;;;4.22;;
54263;SDS011;40178;53.042;6.406;2023-05-27T13:34:39;11.35;;;3.13;;
54263;SDS011;40178;53.042;6.406;2023-05-27T13:37:05;12.55;;;4.13;;
54263;SDS011;40178;53.042;6.406;2023-05-27T13:39:31;12.35;;;3.67;;
54263;SDS011;40178;53.042;6.406;2023-05-27T13:41:57;10.90;;;3.45;;
54263;SDS011;40178;53.042;6.406;2023-05-27T13:44:23;9.60;;;4.07;;
54263;SDS011;40178;53.042;6.406;2023-05-27T13:46:49;10.13;;;4.05;;
54263;SDS011;40178;53.042;6.406;2023-05-27T13:49:15;9.55;;;3.72;;
54263;SDS011;40178;53.042;6.406;2023-05-27T13:51:44;9.25;;;3.25;;
54263;SDS011;40178;53.042;6.406;2023-05-27T13:54:11;9.52;;;3.40;;
54263;SDS011;40178;53.042;6.406;2023-05-27T13:56:37;6.93;;;3.15;;
54263;SDS011;40178;53.042;6.406;2023-05-27T13:59:03;8.13;;;2.90;;
54263;SDS011;40178;53.042;6.406;2023-05-27T14:01:30;9.30;;;2.78;;
54263;SDS011;40178;53.042;6.406;2023-05-27T14:03:56;7.22;;;3.70;;
54263;SDS011;40178;53.042;6.406;2023-05-27T14:06:22;12.80;;;4.13;;
54263;SDS011;40178;53.042;6.406;2023-05-27T14:08:48;8.18;;;3.33;;
54263;SDS011;40178;53.042;6.406;2023-05-27T14:11:13;10.38;;;3.55;;
54263;SDS011;40178;53.042;6.406;2023-05-27T14:13:39;11.55;;;4.68;;
54263;SDS011;40178;53.042;6.406;2023-05-27T14:16:06;11.93;;;3.28;;
54263;SDS011;40178;53.042;6.406;2023-05-27T14:18:31;9.57;;;3.00;;
54263;SDS011;40178;53.042;6.406;2023-05-27T14:20:57;12.80;;;3.70;;
54263;SDS011;40178;53.042;6.406;2023-05-27T14:23:23;10.43;;;4.35;;
54263;SDS011;40178;53.042;6.406;2023-05-27T14:25:48;10.27;;;3.88;;
54263;SDS011;40178;53.042;6.406;2023-05-27T14:28:14;9.57;;;3.30;;
54263;SDS011;40178;53.042;6.406;2023-05-27T14:30:40;11.30;;;3.13;;
54263;SDS011;40178;53.042;6.406;2023-05-27T14:33:06;9.45;;;3.45;;
54263;SDS011;40178;53.042;6.406;2023-05-27T14:35:35;10.27;;;3.15;;
54263;SDS011;40178;53.042;6.406;2023-05-27T14:38:02;8.10;;;3.63;;
54263;SDS011;40178;53.042;6.406;2023-05-27T14:40:28;9.32;;;3.33;;
54263;SDS011;40178;53.042;6.406;2023-05-27T14:42:54;9.35;;;3.30;;
54263;SDS011;40178;53.042;6.406;2023-05-27T14:45:20;12.02;;;3.88;;